createdAt,value
2017-12-30T00:01:33.732Z,9.32
2017-12-30T00:04:01.135Z,7.72
2017-12-30T00:06:29.384Z,6.47
2017-12-30T00:08:56.852Z,7.20
2017-12-30T00:11:24.275Z,5.22
2017-12-30T00:13:51.688Z,4.10
2017-12-30T00:16:19.111Z,3.92
2017-12-30T00:18:46.628Z,3.37
2017-12-30T00:21:14.052Z,3.10
2017-12-30T00:23:41.468Z,3.12
2017-12-30T00:26:08.935Z,2.97
2017-12-30T00:28:36.348Z,1.87
2017-12-30T00:31:03.880Z,2.35
2017-12-30T00:33:31.292Z,2.30
2017-12-30T00:35:59.532Z,1.70
2017-12-30T00:38:27.755Z,1.62
2017-12-30T00:40:55.202Z,1.50
2017-12-30T00:43:22.608Z,1.52
2017-12-30T00:45:50.141Z,1.60
2017-12-30T00:48:17.564Z,1.50
2017-12-30T00:50:44.976Z,1.27
2017-12-30T00:53:12.395Z,1.50
2017-12-30T00:55:39.812Z,1.58
2017-12-30T00:58:07.236Z,1.48
2017-12-30T01:00:35.460Z,1.40
2017-12-30T01:03:02.930Z,1.23
2017-12-30T01:05:30.343Z,1.80
2017-12-30T01:07:57.867Z,1.40
2017-12-30T01:10:25.279Z,1.50
2017-12-30T01:12:52.705Z,1.10
2017-12-30T01:15:20.182Z,1.20
2017-12-30T01:17:47.599Z,1.60
2017-12-30T01:20:15.012Z,1.27
2017-12-30T01:22:42.502Z,1.20
2017-12-30T01:25:09.928Z,1.10
2017-12-30T01:27:38.239Z,1.25
2017-12-30T01:30:05.712Z,1.05
2017-12-30T01:32:33.135Z,0.93
2017-12-30T01:35:01.367Z,1.10
2017-12-30T01:37:28.787Z,1.50
2017-12-30T01:39:56.200Z,1.20
2017-12-30T01:42:23.659Z,1.87
2017-12-30T01:44:51.152Z,1.80
2017-12-30T01:47:18.572Z,1.77
2017-12-30T01:49:45.991Z,2.10
2017-12-30T01:52:13.454Z,1.70
2017-12-30T01:54:40.888Z,1.52
2017-12-30T01:57:08.294Z,1.62
2017-12-30T01:59:35.768Z,1.87
2017-12-30T02:02:03.184Z,2.08
2017-12-30T02:04:30.603Z,1.70
2017-12-30T02:06:58.014Z,2.10
2017-12-30T02:09:25.444Z,2.30
2017-12-30T02:11:52.850Z,2.10
2017-12-30T02:14:20.271Z,2.80
2017-12-30T02:16:47.688Z,2.67
2017-12-30T02:19:15.207Z,3.03
2017-12-30T02:21:42.628Z,2.62
2017-12-30T02:24:10.055Z,3.17
2017-12-30T02:26:37.472Z,2.37
2017-12-30T02:29:04.895Z,2.62
2017-12-30T02:31:32.308Z,2.33
2017-12-30T02:33:59.724Z,2.60
2017-12-30T02:36:27.131Z,2.75
2017-12-30T02:38:54.569Z,2.62
2017-12-30T02:41:21.971Z,2.35
2017-12-30T02:43:49.384Z,2.53
2017-12-30T02:46:16.816Z,3.08
2017-12-30T02:48:44.227Z,2.70
2017-12-30T02:51:11.675Z,2.75
2017-12-30T02:53:39.992Z,3.15
2017-12-30T02:56:07.460Z,3.10
2017-12-30T02:58:34.877Z,3.28
2017-12-30T03:01:02.299Z,2.42
2017-12-30T03:03:29.721Z,3.25
2017-12-30T03:05:57.147Z,2.55
2017-12-30T03:08:24.571Z,2.95
2017-12-30T03:10:52.758Z,3.58
2017-12-30T03:13:20.978Z,3.80
2017-12-30T03:15:48.449Z,2.95
2017-12-30T03:18:16.607Z,3.55
2017-12-30T03:20:44.800Z,3.12
2017-12-30T03:23:12.986Z,3.80
2017-12-30T03:25:41.195Z,3.22
2017-12-30T03:28:08.611Z,3.20
2017-12-30T03:30:36.044Z,3.10
2017-12-30T03:33:03.464Z,2.85
2017-12-30T03:35:30.978Z,3.53
2017-12-30T03:37:58.444Z,3.47
2017-12-30T03:40:25.863Z,3.37
2017-12-30T03:42:54.847Z,3.53
2017-12-30T03:45:23.000Z,4.15
2017-12-30T03:47:50.422Z,3.53
2017-12-30T03:50:17.943Z,3.20
2017-12-30T03:52:45.373Z,3.08
2017-12-30T03:55:12.887Z,3.50
2017-12-30T03:57:40.354Z,3.00
2017-12-30T04:00:07.771Z,2.72
2017-12-30T04:02:36.011Z,3.28
2017-12-30T04:05:03.480Z,3.47
2017-12-30T04:07:30.902Z,3.10
2017-12-30T04:09:58.319Z,2.80
2017-12-30T04:12:25.738Z,3.08
2017-12-30T04:14:53.252Z,3.15
2017-12-30T04:17:20.723Z,2.35
2017-12-30T04:19:48.299Z,2.62
2017-12-30T04:22:16.463Z,2.97
2017-12-30T04:24:44.670Z,2.53
2017-12-30T04:27:12.091Z,3.15
2017-12-30T04:29:39.507Z,2.78
2017-12-30T04:32:06.951Z,3.47
2017-12-30T04:34:35.139Z,3.10
2017-12-30T04:37:03.435Z,2.87
2017-12-30T04:39:31.610Z,2.80
2017-12-30T04:41:59.839Z,3.15
2017-12-30T04:44:27.259Z,2.03
2017-12-30T04:46:54.764Z,3.08
2017-12-30T04:49:22.191Z,2.97
2017-12-30T04:51:49.743Z,2.50
2017-12-30T04:54:17.277Z,3.12
2017-12-30T04:56:44.690Z,2.65
2017-12-30T04:59:12.215Z,2.85
2017-12-30T05:01:39.636Z,2.97
2017-12-30T05:04:07.055Z,2.30
2017-12-30T05:06:34.527Z,2.72
2017-12-30T05:09:01.947Z,2.78
2017-12-30T05:11:29.469Z,2.58
2017-12-30T05:13:56.931Z,2.80
2017-12-30T05:16:24.352Z,3.70
2017-12-30T05:18:51.784Z,3.22
2017-12-30T05:21:19.199Z,3.17
2017-12-30T05:23:46.711Z,2.08
2017-12-30T05:26:14.179Z,2.58
2017-12-30T05:28:41.599Z,2.58
2017-12-30T05:31:09.016Z,3.45
2017-12-30T05:33:36.502Z,3.65
2017-12-30T05:36:03.912Z,3.33
2017-12-30T05:38:31.426Z,2.28
2017-12-30T05:40:58.896Z,3.47
2017-12-30T05:43:26.368Z,2.92
2017-12-30T05:45:53.831Z,2.75
2017-12-30T05:48:21.250Z,2.28
2017-12-30T05:50:48.691Z,2.78
2017-12-30T05:53:16.145Z,2.78
2017-12-30T05:55:43.616Z,3.12
2017-12-30T05:58:11.027Z,3.08
2017-12-30T06:00:38.454Z,3.33
2017-12-30T06:03:06.019Z,2.95
2017-12-30T06:05:33.443Z,3.85
2017-12-30T06:08:00.963Z,2.72
2017-12-30T06:10:28.383Z,3.95
2017-12-30T06:12:55.811Z,3.45
2017-12-30T06:15:23.239Z,2.90
2017-12-30T06:17:51.422Z,3.33
2017-12-30T06:20:19.620Z,3.12
2017-12-30T06:22:47.811Z,3.40
2017-12-30T06:25:16.000Z,3.00
2017-12-30T06:27:44.203Z,2.85
2017-12-30T06:30:11.671Z,2.90
2017-12-30T06:32:39.143Z,3.70
2017-12-30T06:35:06.587Z,3.28
2017-12-30T06:37:34.776Z,3.65
2017-12-30T06:40:02.986Z,2.87
2017-12-30T06:42:30.452Z,3.25
2017-12-30T06:44:57.871Z,3.35
2017-12-30T06:47:25.291Z,3.17
2017-12-30T06:49:52.755Z,3.50
2017-12-30T06:52:20.922Z,3.03
2017-12-30T06:54:49.147Z,4.82
2017-12-30T06:57:16.567Z,3.72
2017-12-30T06:59:43.979Z,3.08
2017-12-30T07:02:11.407Z,3.37
2017-12-30T07:04:38.831Z,3.25
2017-12-30T07:07:06.427Z,3.30
2017-12-30T07:09:33.849Z,3.80
2017-12-30T07:12:01.315Z,3.08
2017-12-30T07:14:28.731Z,3.37
2017-12-30T07:16:56.259Z,3.20
2017-12-30T07:19:23.683Z,3.25
2017-12-30T07:21:51.111Z,3.30
2017-12-30T07:24:18.527Z,3.55
2017-12-30T07:26:45.951Z,3.37
2017-12-30T07:29:13.367Z,3.15
2017-12-30T07:31:40.790Z,3.42
2017-12-30T07:34:08.220Z,3.12
2017-12-30T07:36:36.428Z,3.78
2017-12-30T07:39:03.851Z,2.80
2017-12-30T07:41:31.375Z,3.25
2017-12-30T07:43:58.836Z,3.40
2017-12-30T07:46:26.259Z,3.10
2017-12-30T07:48:53.679Z,3.60
2017-12-30T07:51:21.097Z,3.45
2017-12-30T07:53:48.538Z,3.60
2017-12-30T07:56:15.956Z,3.35
2017-12-30T07:58:44.155Z,3.53
2017-12-30T08:01:11.639Z,3.05
2017-12-30T08:03:39.062Z,3.47
2017-12-30T08:06:06.579Z,2.85
2017-12-30T08:08:34.047Z,2.47
2017-12-30T08:11:01.471Z,2.35
2017-12-30T08:13:28.899Z,2.40
2017-12-30T08:15:56.355Z,2.53
2017-12-30T08:18:23.795Z,2.15
2017-12-30T08:20:52.078Z,2.55
2017-12-30T08:23:19.507Z,2.30
2017-12-30T08:25:46.914Z,2.65
2017-12-30T08:28:15.142Z,2.17
2017-12-30T08:30:42.558Z,3.08
2017-12-30T08:33:10.080Z,3.00
2017-12-30T08:35:37.551Z,2.83
2017-12-30T08:38:04.977Z,3.70
2017-12-30T08:40:32.484Z,3.87
2017-12-30T08:43:00.819Z,3.85
2017-12-30T08:45:28.243Z,4.55
2017-12-30T08:47:55.708Z,3.30
2017-12-30T08:50:23.902Z,3.30
2017-12-30T08:52:51.584Z,3.50
2017-12-30T08:55:19.753Z,2.83
2017-12-30T08:57:47.239Z,3.50
2017-12-30T09:00:14.664Z,3.70
2017-12-30T09:02:42.279Z,3.55
2017-12-30T09:05:09.744Z,3.22
2017-12-30T09:07:37.265Z,3.00
2017-12-30T09:10:04.690Z,2.92
2017-12-30T09:12:32.098Z,3.17
2017-12-30T09:14:59.639Z,3.40
2017-12-30T09:17:27.059Z,3.47
2017-12-30T09:19:55.256Z,2.92
2017-12-30T09:22:23.436Z,3.15
2017-12-30T09:24:51.629Z,2.33
2017-12-30T09:27:19.807Z,2.33
2017-12-30T09:29:48.016Z,3.28
2017-12-30T09:32:16.175Z,2.20
2017-12-30T09:34:43.604Z,2.25
2017-12-30T09:37:11.020Z,2.03
2017-12-30T09:39:38.432Z,2.67
2017-12-30T09:42:05.855Z,2.62
2017-12-30T09:44:34.072Z,2.53
2017-12-30T09:47:01.544Z,2.90
2017-12-30T09:49:28.959Z,3.25
2017-12-30T09:51:56.487Z,3.10
2017-12-30T09:54:23.951Z,2.28
2017-12-30T09:56:51.425Z,2.35
2017-12-30T09:59:18.838Z,2.03
2017-12-30T10:01:46.364Z,1.87
2017-12-30T10:04:13.791Z,1.90
2017-12-30T10:06:41.215Z,1.85
2017-12-30T10:09:08.631Z,2.00
2017-12-30T10:11:36.147Z,1.50
2017-12-30T10:14:03.608Z,1.52
2017-12-30T10:16:31.043Z,1.60
2017-12-30T10:18:58.548Z,1.80
2017-12-30T10:21:25.967Z,1.73
2017-12-30T10:23:53.384Z,1.17
2017-12-30T10:26:20.806Z,1.58
2017-12-30T10:28:48.328Z,0.90
2017-12-30T10:31:16.515Z,1.12
2017-12-30T10:33:43.926Z,1.30
2017-12-30T10:36:11.446Z,1.00
2017-12-30T10:38:38.859Z,0.73
2017-12-30T10:41:06.283Z,1.00
2017-12-30T10:43:33.763Z,0.55
2017-12-30T10:46:01.186Z,0.55
2017-12-30T10:48:28.595Z,0.90
2017-12-30T10:50:56.064Z,0.57
2017-12-30T10:53:23.535Z,0.95
2017-12-30T10:55:50.963Z,0.73
2017-12-30T10:58:18.475Z,0.60
2017-12-30T11:00:51.691Z,1.10
2017-12-30T11:03:19.164Z,1.00
2017-12-30T11:05:46.575Z,1.00
2017-12-30T11:08:14.091Z,0.55
2017-12-30T11:10:41.559Z,0.80
2017-12-30T11:13:08.991Z,0.70
2017-12-30T11:15:36.599Z,0.80
2017-12-30T11:18:04.007Z,0.75
2017-12-30T11:20:31.539Z,0.60
2017-12-30T11:22:59.013Z,1.10
2017-12-30T11:25:26.438Z,0.85
2017-12-30T11:27:53.851Z,0.85
2017-12-30T11:30:21.280Z,1.30
2017-12-30T11:32:48.792Z,0.85
2017-12-30T11:35:16.259Z,0.80
2017-12-30T11:37:43.675Z,0.80
2017-12-30T11:40:11.109Z,0.80
2017-12-30T11:42:38.527Z,0.62
2017-12-30T11:45:06.297Z,0.80
2017-12-30T11:47:33.728Z,0.88
2017-12-30T11:50:01.143Z,1.12
2017-12-30T11:52:28.581Z,1.17
2017-12-30T11:54:55.991Z,0.90
2017-12-30T11:57:23.515Z,0.70
2017-12-30T11:59:50.927Z,0.98
2017-12-30T12:02:18.353Z,0.60
2017-12-30T12:04:45.762Z,0.80
2017-12-30T12:07:13.292Z,0.60
2017-12-30T12:09:40.763Z,0.93
2017-12-30T12:12:08.185Z,0.55
2017-12-30T12:14:35.601Z,1.15
2017-12-30T12:17:03.020Z,0.88
2017-12-30T12:19:30.444Z,0.95
2017-12-30T12:21:57.859Z,0.82
2017-12-30T12:24:25.280Z,1.17
2017-12-30T12:26:52.700Z,1.58
2017-12-30T12:29:20.111Z,1.45
2017-12-30T12:31:47.536Z,1.62
2017-12-30T12:34:15.057Z,1.98
2017-12-30T12:36:42.474Z,2.00
2017-12-30T12:39:09.991Z,2.03
2017-12-30T12:41:37.411Z,2.10
2017-12-30T12:44:06.703Z,2.40
2017-12-30T12:46:34.137Z,1.90
2017-12-30T12:49:01.575Z,2.15
2017-12-30T12:51:29.764Z,1.95
2017-12-30T12:53:57.983Z,2.30
2017-12-30T12:56:25.456Z,2.12
2017-12-30T12:58:52.822Z,1.87
2017-12-30T13:01:20.291Z,2.25
2017-12-30T13:03:47.728Z,2.08
2017-12-30T13:06:15.920Z,2.80
2017-12-30T13:08:44.103Z,2.50
2017-12-30T13:11:12.291Z,2.45
2017-12-30T13:13:40.470Z,3.05
2017-12-30T13:16:07.971Z,2.70
2017-12-30T13:18:35.620Z,2.97
2017-12-30T13:21:03.812Z,2.97
2017-12-30T13:23:32.027Z,3.22
2017-12-30T13:25:59.456Z,3.08
2017-12-30T13:28:26.963Z,3.55
2017-12-30T13:30:54.404Z,3.33
2017-12-30T13:33:22.591Z,3.75
2017-12-30T13:35:50.779Z,3.55
2017-12-30T13:38:19.057Z,3.70
2017-12-30T13:40:46.435Z,3.33
2017-12-30T13:43:14.626Z,3.17
2017-12-30T13:45:42.822Z,3.85
2017-12-30T13:48:11.028Z,3.08
2017-12-30T13:50:38.491Z,3.58
2017-12-30T13:53:05.941Z,3.53
2017-12-30T13:55:34.122Z,4.00
2017-12-30T13:58:02.311Z,3.22
2017-12-30T14:00:30.492Z,3.10
2017-12-30T14:02:58.683Z,3.90
2017-12-30T14:05:26.875Z,3.87
2017-12-30T14:07:55.090Z,3.40
2017-12-30T14:10:23.242Z,3.42
2017-12-30T14:12:51.755Z,3.10
2017-12-30T14:15:19.951Z,3.97
2017-12-30T14:17:47.375Z,3.12
2017-12-30T14:20:14.794Z,2.60
2017-12-30T14:22:42.215Z,3.12
2017-12-30T14:25:09.731Z,3.25
2017-12-30T14:27:37.175Z,3.40
2017-12-30T14:30:05.367Z,3.28
2017-12-30T14:32:33.564Z,3.40
2017-12-30T14:35:01.120Z,3.00
2017-12-30T14:37:29.283Z,3.53
2017-12-30T14:39:56.800Z,3.37
2017-12-30T14:42:24.271Z,3.00
2017-12-30T14:44:51.683Z,3.25
2017-12-30T14:47:19.107Z,3.50
2017-12-30T14:49:46.523Z,3.55
2017-12-30T14:52:13.948Z,3.08
2017-12-30T14:54:41.367Z,4.28
2017-12-30T14:57:08.795Z,5.25
2017-12-30T14:59:36.212Z,4.72
2017-12-30T15:02:03.639Z,4.60
2017-12-30T15:04:31.064Z,7.10
2017-12-30T15:06:59.260Z,8.05
2017-12-30T15:09:27.445Z,6.62
2017-12-30T15:11:55.635Z,7.78
2017-12-30T15:14:23.062Z,7.35
2017-12-30T15:16:50.601Z,6.95
2017-12-30T15:19:18.019Z,7.87
2017-12-30T15:21:45.443Z,8.85
2017-12-30T15:24:12.895Z,9.13
2017-12-30T15:26:40.319Z,8.88
2017-12-30T15:29:07.839Z,8.23
2017-12-30T15:31:35.516Z,8.52
2017-12-30T15:34:02.976Z,6.95
2017-12-30T15:36:30.404Z,6.32
2017-12-30T15:38:57.918Z,5.60
2017-12-30T15:41:25.342Z,5.05
2017-12-30T15:43:52.767Z,5.65
2017-12-30T15:46:20.229Z,5.82
2017-12-30T15:48:47.639Z,5.32
2017-12-30T15:51:15.834Z,5.20
2017-12-30T15:53:43.355Z,5.10
2017-12-30T15:56:10.771Z,5.32
2017-12-30T15:58:38.301Z,5.22
2017-12-30T16:01:05.729Z,4.75
2017-12-30T16:03:33.150Z,5.12
2017-12-30T16:06:00.583Z,5.45
2017-12-30T16:08:28.020Z,5.03
2017-12-30T16:10:55.431Z,5.18
2017-12-30T16:13:22.903Z,5.15
2017-12-30T16:15:50.330Z,5.37
2017-12-30T16:18:17.843Z,4.95
2017-12-30T16:20:45.320Z,4.93
2017-12-30T16:23:12.739Z,5.35
2017-12-30T16:25:40.159Z,5.32
2017-12-30T16:28:08.587Z,5.30
2017-12-30T16:30:36.030Z,5.03
2017-12-30T16:33:03.440Z,5.10
2017-12-30T16:35:30.859Z,4.95
2017-12-30T16:37:58.315Z,5.35
2017-12-30T16:40:25.787Z,5.75
2017-12-30T16:42:54.012Z,5.12
2017-12-30T16:45:21.452Z,4.70
2017-12-30T16:47:49.624Z,4.75
2017-12-30T16:50:17.107Z,5.68
2017-12-30T16:52:44.576Z,5.55
2017-12-30T16:55:12.047Z,5.55
2017-12-30T16:57:39.466Z,4.97
2017-12-30T17:00:06.891Z,4.78
2017-12-30T17:02:34.310Z,4.55
2017-12-30T17:05:02.639Z,5.20
2017-12-30T17:07:30.811Z,4.07
2017-12-30T17:09:58.230Z,5.97
2017-12-30T17:12:25.659Z,4.87
2017-12-30T17:14:53.131Z,4.37
2017-12-30T17:17:20.566Z,4.35
2017-12-30T17:19:47.975Z,5.05
2017-12-30T17:22:15.426Z,5.12
2017-12-30T17:24:42.911Z,4.93
2017-12-30T17:27:10.388Z,5.03
2017-12-30T17:29:37.857Z,4.78
2017-12-30T17:32:05.419Z,4.05
2017-12-30T17:34:32.834Z,4.68
2017-12-30T17:37:00.259Z,4.75
2017-12-30T17:39:27.719Z,4.18
2017-12-30T17:41:55.198Z,4.30
2017-12-30T17:44:22.622Z,4.95
2017-12-30T17:46:50.067Z,4.62
2017-12-30T17:49:17.524Z,4.80
2017-12-30T17:51:44.943Z,4.87
2017-12-30T17:54:13.161Z,4.62
2017-12-30T17:56:40.578Z,6.00
2017-12-30T17:59:08.033Z,5.35
2017-12-30T18:01:35.563Z,4.95
2017-12-30T18:04:03.053Z,4.72
2017-12-30T18:06:30.419Z,4.43
2017-12-30T18:08:57.851Z,4.12
2017-12-30T18:11:26.047Z,4.40
2017-12-30T18:13:54.268Z,5.20
2017-12-30T18:16:22.445Z,4.82
2017-12-30T18:18:50.075Z,4.47
2017-12-30T18:21:17.468Z,4.30
2017-12-30T18:23:44.897Z,4.68
2017-12-30T18:26:12.315Z,4.25
2017-12-30T18:28:39.734Z,4.93
2017-12-30T18:31:07.152Z,4.57
2017-12-30T18:33:34.585Z,4.47
2017-12-30T18:36:02.036Z,4.90
2017-12-30T18:38:29.623Z,5.60
2017-12-30T18:40:57.035Z,5.97
2017-12-30T18:43:24.487Z,4.65
2017-12-30T18:45:52.662Z,4.35
2017-12-30T18:48:21.060Z,5.28
2017-12-30T18:50:49.382Z,4.30
2017-12-30T18:53:16.821Z,4.43
2017-12-30T18:55:45.008Z,4.47
2017-12-30T18:58:13.235Z,5.00
2017-12-30T19:00:40.666Z,5.22
2017-12-30T19:03:08.111Z,5.10
2017-12-30T19:05:35.548Z,6.57
2017-12-30T19:08:02.976Z,6.25
2017-12-30T19:10:31.172Z,5.97
2017-12-30T19:12:58.629Z,6.37
2017-12-30T19:15:26.840Z,6.78
2017-12-30T19:17:54.323Z,6.20
2017-12-30T19:20:21.785Z,6.07
2017-12-30T19:22:49.258Z,6.45
2017-12-30T19:25:16.691Z,4.87
2017-12-30T19:27:44.119Z,5.12
2017-12-30T19:30:11.531Z,4.85
2017-12-30T19:32:39.727Z,4.78
2017-12-30T19:35:07.936Z,5.47
2017-12-30T19:37:35.359Z,4.62
2017-12-30T19:40:02.881Z,4.60
2017-12-30T19:42:30.308Z,4.50
2017-12-30T19:44:57.818Z,4.97
2017-12-30T19:47:25.240Z,4.45
2017-12-30T19:49:52.767Z,5.03
2017-12-30T19:52:20.213Z,3.95
2017-12-30T19:54:47.687Z,3.95
2017-12-30T19:57:15.102Z,3.33
2017-12-30T19:59:42.531Z,3.90
2017-12-30T20:02:09.968Z,3.75
2017-12-30T20:04:38.186Z,3.70
2017-12-30T20:07:05.652Z,3.15
2017-12-30T20:09:33.089Z,3.70
2017-12-30T20:12:00.502Z,3.75
2017-12-30T20:14:27.931Z,4.25
2017-12-30T20:16:56.886Z,3.67
2017-12-30T20:19:24.332Z,3.83
2017-12-30T20:21:51.747Z,5.07
2017-12-30T20:24:19.180Z,6.15
2017-12-30T20:26:46.596Z,5.55
2017-12-30T20:29:14.117Z,6.70
2017-12-30T20:31:41.587Z,5.55
2017-12-30T20:34:09.055Z,5.70
2017-12-30T20:36:36.522Z,5.40
2017-12-30T20:39:03.991Z,4.50
2017-12-30T20:41:31.417Z,5.82
2017-12-30T20:43:58.940Z,7.15
2017-12-30T20:46:26.360Z,7.80
2017-12-30T20:48:53.780Z,5.87
2017-12-30T20:51:21.236Z,5.47
2017-12-30T20:53:48.664Z,4.82
2017-12-30T20:56:16.080Z,3.92
2017-12-30T20:58:43.548Z,8.45
2017-12-30T21:01:10.991Z,3.37
2017-12-30T21:03:38.486Z,4.30
2017-12-30T21:06:05.967Z,2.70
2017-12-30T21:08:33.399Z,3.00
2017-12-30T21:11:01.583Z,3.12
2017-12-30T21:13:29.815Z,2.67
2017-12-30T21:15:57.268Z,2.35
2017-12-30T21:18:24.739Z,2.15
2017-12-30T21:20:52.931Z,2.80
2017-12-30T21:23:20.364Z,2.00
2017-12-30T21:25:48.567Z,2.03
2017-12-30T21:28:15.999Z,2.00
2017-12-30T21:30:43.416Z,1.90
2017-12-30T21:33:10.867Z,1.80
2017-12-30T21:35:39.079Z,1.67
2017-12-30T21:38:06.504Z,2.10
2017-12-30T21:40:34.012Z,2.33
2017-12-30T21:43:01.481Z,1.90
2017-12-30T21:45:28.918Z,1.77
2017-12-30T21:47:57.108Z,1.98
2017-12-30T21:50:25.303Z,2.12
2017-12-30T21:52:54.350Z,1.62
2017-12-30T21:55:21.783Z,1.80
2017-12-30T21:57:49.995Z,2.00
2017-12-30T22:00:17.436Z,2.22
2017-12-30T22:02:45.634Z,2.28
2017-12-30T22:05:13.060Z,1.80
2017-12-30T22:07:40.483Z,1.60
2017-12-30T22:10:07.904Z,1.45
2017-12-30T22:12:35.523Z,1.27
2017-12-30T22:15:02.993Z,1.37
2017-12-30T22:17:30.462Z,1.25
2017-12-30T22:19:57.888Z,1.73
2017-12-30T22:22:25.295Z,1.65
2017-12-30T22:24:52.720Z,1.15
2017-12-30T22:27:20.244Z,1.45
2017-12-30T22:29:47.672Z,1.65
2017-12-30T22:32:15.091Z,1.20
2017-12-30T22:34:42.547Z,1.12
2017-12-30T22:37:09.972Z,1.50
2017-12-30T22:39:37.423Z,0.77
2017-12-30T22:42:04.839Z,0.90
2017-12-30T22:44:32.272Z,0.90
2017-12-30T22:46:59.690Z,0.65
2017-12-30T22:49:27.115Z,0.85
2017-12-30T22:51:54.535Z,0.62
2017-12-30T22:54:21.959Z,0.60
2017-12-30T22:56:49.385Z,1.02
2017-12-30T22:59:16.812Z,0.70
2017-12-30T23:01:45.015Z,0.70
2017-12-30T23:04:12.488Z,0.60
2017-12-30T23:06:39.903Z,1.05
2017-12-30T23:09:07.328Z,0.73
2017-12-30T23:11:34.855Z,0.80
2017-12-30T23:14:02.248Z,0.77
2017-12-30T23:16:30.472Z,0.90
2017-12-30T23:18:57.906Z,0.52
2017-12-30T23:21:26.087Z,0.60
2017-12-30T23:23:54.300Z,0.70
2017-12-30T23:26:21.714Z,0.73
2017-12-30T23:28:49.243Z,0.70
2017-12-30T23:31:16.655Z,0.82
2017-12-30T23:33:44.084Z,0.70
2017-12-30T23:36:11.513Z,0.60
2017-12-30T23:38:39.012Z,0.80
2017-12-30T23:41:06.439Z,0.60
2017-12-30T23:43:33.863Z,1.00
2017-12-30T23:46:01.319Z,0.52
2017-12-30T23:48:28.787Z,0.80
2017-12-30T23:50:56.259Z,0.98
2017-12-30T23:53:23.683Z,0.82
2017-12-30T23:55:51.144Z,0.73
2017-12-30T23:58:18.551Z,0.68
